Time;durP1;ratioP1;P1;durP2;ratioP2;P2;SDS_P1;SDS_P2;PMS_P1;PMS_P2;Temp;Humidity;BMP_temperature;BMP_pressure;BME280_temperature;BME280_humidity;BME280_pressure;Samples;Min_cycle;Max_cycle;Signal;HPM_P1;HPM_P2
2023/12/31 00:03:02;;;;;;;194.40;62.40;;;;;;;2.50;100.00;100385.81;213833;1284;140401;-88
2023/12/31 00:08:02;;;;;;;128.50;41.70;;;;;;;2.47;100.00;100383.98;214180;1289;139851;-87
2023/12/31 00:13:03;;;;;;;99.60;37.20;;;;;;;2.38;100.00;100380.64;213546;1284;140654;-89
2023/12/31 00:18:04;;;;;;;101.10;37.60;;;;;;;2.33;100.00;100385.48;214311;1284;140018;-89
2023/12/31 00:23:04;;;;;;;147.00;52.60;;;;;;;2.27;100.00;100386.40;213800;1284;141287;-88
2023/12/31 00:28:05;;;;;;;62.40;25.10;;;;;;;2.21;100.00;100386.97;214266;1284;138988;-87
2023/12/31 00:33:05;;;;;;;85.10;33.70;;;;;;;2.12;100.00;100382.55;213792;1289;139838;-88
2023/12/31 00:38:06;;;;;;;101.30;39.90;;;;;;;2.06;100.00;100384.77;214331;1285;138515;-88
2023/12/31 00:43:06;;;;;;;131.20;48.50;;;;;;;2.02;100.00;100395.27;213802;1287;139960;-87
2023/12/31 00:48:06;;;;;;;224.30;72.60;;;;;;;1.95;100.00;100404.39;214127;1285;139232;-88
2023/12/31 00:53:07;;;;;;;108.40;41.00;;;;;;;1.89;100.00;100406.65;213694;1284;139975;-88
2023/12/31 00:58:07;;;;;;;102.80;38.00;;;;;;;1.80;100.00;100398.37;214404;1285;138864;-88
2023/12/31 01:03:08;;;;;;;144.00;46.40;;;;;;;1.75;100.00;100399.29;214090;1286;139612;-88
2023/12/31 01:08:08;;;;;;;144.50;48.40;;;;;;;1.75;100.00;100396.02;214439;1285;138699;-88
2023/12/31 01:13:09;;;;;;;112.90;38.10;;;;;;;1.73;100.00;100403.47;213723;1289;140675;-88
2023/12/31 01:18:10;;;;;;;88.00;32.60;;;;;;;1.68;100.00;100401.73;214385;1284;139072;-88
2023/12/31 01:23:10;;;;;;;136.60;46.20;;;;;;;1.63;100.00;100407.41;214009;1285;139764;-87
2023/12/31 01:28:11;;;;;;;81.60;28.00;;;;;;;1.62;100.00;100408.91;214309;1288;139276;-88
2023/12/31 01:33:12;;;;;;;146.40;47.00;;;;;;;1.61;100.00;100409.93;213931;1284;140167;-88
2023/12/31 01:38:12;;;;;;;97.00;33.10;;;;;;;1.58;100.00;100411.58;214235;1285;138775;-87
2023/12/31 01:43:12;;;;;;;91.80;32.10;;;;;;;1.56;100.00;100415.73;213954;1289;140065;-87
2023/12/31 01:48:14;;;;;;;223.70;61.70;;;;;;;1.57;100.00;100413.47;214358;1284;138928;-87
2023/12/31 01:53:14;;;;;;;207.00;56.80;;;;;;;1.59;100.00;100415.29;213909;1285;140775;-88
2023/12/31 01:58:15;;;;;;;126.80;42.80;;;;;;;1.62;100.00;100418.36;214642;1285;140532;-88
2023/12/31 02:03:16;;;;;;;113.10;39.40;;;;;;;1.64;100.00;100419.25;214208;1284;139801;-88
2023/12/31 02:08:17;;;;;;;102.40;33.50;;;;;;;1.66;100.00;100419.48;214627;1284;139173;-87
2023/12/31 02:13:18;;;;;;;115.60;36.10;;;;;;;1.70;100.00;100423.14;214282;1288;139770;-88
2023/12/31 02:18:19;;;;;;;60.70;23.30;;;;;;;1.75;100.00;100419.86;214643;1285;138976;-88
2023/12/31 02:23:20;;;;;;;50.20;19.70;;;;;;;1.79;100.00;100416.27;214022;1285;140121;-89
2023/12/31 02:28:20;;;;;;;157.90;44.20;;;;;;;1.89;100.00;100415.18;214882;1285;138903;-88
2023/12/31 02:33:21;;;;;;;107.50;36.60;;;;;;;1.97;100.00;100416.10;213981;1284;140647;-87
2023/12/31 02:38:22;;;;;;;65.80;24.40;;;;;;;2.04;100.00;100405.40;214559;1284;139868;-88
2023/12/31 02:43:22;;;;;;;73.90;28.20;;;;;;;2.10;100.00;100401.53;213885;1289;140610;-88
2023/12/31 02:48:22;;;;;;;132.40;37.40;;;;;;;2.17;100.00;100397.37;214631;1288;139294;-87
2023/12/31 02:53:23;;;;;;;166.70;50.20;;;;;;;2.26;100.00;100393.71;214164;1285;141207;-87
2023/12/31 02:58:23;;;;;;;150.60;47.10;;;;;;;2.33;100.00;100393.64;214634;1289;139504;-88
2023/12/31 03:03:24;;;;;;;99.10;34.90;;;;;;;2.39;100.00;100397.07;214290;1284;140409;-89
2023/12/31 03:08:24;;;;;;;45.90;20.10;;;;;;;2.44;100.00;100389.45;214853;1285;139036;-89
2023/12/31 03:13:24;;;;;;;34.20;15.60;;;;;;;2.51;100.00;100386.55;214212;1284;141132;-89
2023/12/31 03:18:25;;;;;;;51.20;18.50;;;;;;;2.57;100.00;100388.54;214788;1284;139689;-89
2023/12/31 03:23:25;;;;;;;210.20;57.20;;;;;;;2.63;100.00;100385.55;214166;1284;139445;-88
2023/12/31 03:28:26;;;;;;;149.70;45.10;;;;;;;2.70;100.00;100382.32;214731;1286;139698;-89
2023/12/31 03:33:26;;;;;;;111.30;40.10;;;;;;;2.75;100.00;100377.34;214444;1285;139820;-88
2023/12/31 03:38:27;;;;;;;88.00;30.60;;;;;;;2.80;100.00;100370.77;214805;1290;139448;-87
2023/12/31 03:43:27;;;;;;;50.50;22.40;;;;;;;2.86;100.00;100365.35;214240;1286;139955;-87
2023/12/31 03:48:28;;;;;;;39.20;18.90;;;;;;;2.92;100.00;100359.14;214814;1285;139301;-88
2023/12/31 03:53:28;;;;;;;39.10;17.80;;;;;;;2.95;100.00;100345.92;214027;1284;139528;-88
2023/12/31 03:58:28;;;;;;;36.00;16.70;;;;;;;3.00;100.00;100343.72;214705;1285;139826;-87
2023/12/31 04:03:29;;;;;;;40.40;17.40;;;;;;;3.02;100.00;100337.11;214313;1285;139989;-88
2023/12/31 04:08:30;;;;;;;45.00;18.60;;;;;;;3.03;100.00;100328.83;215015;1287;138986;-88
2023/12/31 04:13:30;;;;;;;36.70;16.00;;;;;;;3.04;100.00;100324.21;214416;1284;140101;-88
2023/12/31 04:18:31;;;;;;;43.70;19.30;;;;;;;3.03;100.00;100325.11;214666;1285;138986;-88
2023/12/31 04:23:32;;;;;;;40.60;18.80;;;;;;;3.01;100.00;100328.30;214174;1285;140640;-88
2023/12/31 04:28:32;;;;;;;50.70;21.20;;;;;;;2.93;100.00;100314.14;214797;1285;139773;-88
2023/12/31 04:33:33;;;;;;;50.10;23.10;;;;;;;2.88;100.00;100305.87;214441;1289;140107;-88
2023/12/31 04:38:33;;;;;;;41.60;19.20;;;;;;;2.82;100.00;100298.73;214854;1284;139997;-88
2023/12/31 04:43:34;;;;;;;47.70;19.90;;;;;;;2.76;100.00;100294.45;214053;1287;139595;-87
2023/12/31 04:48:37;;;;;;;44.70;19.30;;;;;;;2.74;100.00;100299.96;214815;1285;140055;-88
2023/12/31 04:53:37;;;;;;;41.50;17.80;;;;;;;2.71;100.00;100298.15;214199;1285;140293;-87
2023/12/31 04:58:38;;;;;;;39.20;17.10;;;;;;;2.68;100.00;100297.54;214683;1285;139077;-88
2023/12/31 05:03:39;;;;;;;50.50;22.30;;;;;;;2.61;100.00;100295.48;214336;1285;140400;-88
2023/12/31 05:08:44;;;;;;;64.30;28.50;;;;;;;2.55;100.00;100280.80;214474;1285;138996;-88
2023/12/31 05:13:47;;;;;;;35.00;17.90;;;;;;;2.52;100.00;100278.17;214309;1289;140404;-88
2023/12/31 05:18:51;;;;;;;36.50;16.70;;;;;;;2.50;100.00;100265.21;214874;1284;139001;-87
2023/12/31 05:23:52;;;;;;;36.20;16.00;;;;;;;2.47;100.00;100257.41;214085;1285;140156;-88
2023/12/31 05:28:56;;;;;;;86.00;29.20;;;;;;;2.42;100.00;100249.83;214919;1286;138989;-88
2023/12/31 05:33:56;;;;;;;52.70;21.80;;;;;;;2.39;100.00;100240.25;214239;1285;139742;-86
2023/12/31 05:38:57;;;;;;;35.50;13.80;;;;;;;2.38;100.00;100236.65;214700;1285;103389;-87
2023/12/31 05:43:57;;;;;;;32.80;12.40;;;;;;;2.37;100.00;100240.42;213954;1284;140430;-87
2023/12/31 05:48:57;;;;;;;31.00;13.80;;;;;;;2.36;100.00;100239.27;214716;1284;138897;-88
2023/12/31 05:53:58;;;;;;;27.00;13.80;;;;;;;2.34;100.00;100234.47;214230;1285;140084;-88
2023/12/31 05:58:58;;;;;;;37.20;15.80;;;;;;;2.30;100.00;100230.37;214653;1285;138837;-88
2023/12/31 06:03:59;;;;;;;33.40;14.20;;;;;;;2.27;100.00;100234.73;214178;1285;140030;-89
2023/12/31 06:08:59;;;;;;;32.30;14.30;;;;;;;2.25;100.00;100231.55;214949;1285;97939;-89
2023/12/31 06:14:02;;;;;;;29.30;13.70;;;;;;;2.20;100.00;100232.52;214405;1285;139813;-89
2023/12/31 06:19:03;;;;;;;26.10;11.70;;;;;;;2.16;100.00;100230.95;214463;1285;139428;-86
2023/12/31 06:24:04;;;;;;;28.50;13.20;;;;;;;2.13;100.00;100238.48;214008;1285;140324;-87
2023/12/31 06:29:05;;;;;;;30.30;13.10;;;;;;;2.08;100.00;100236.73;214519;1287;139124;-87
2023/12/31 06:34:05;;;;;;;28.60;13.70;;;;;;;2.03;100.00;100238.47;214261;1289;139485;-87
2023/12/31 06:39:10;;;;;;;33.30;14.70;;;;;;;1.98;100.00;100238.96;214622;1289;98015;-88
2023/12/31 06:44:10;;;;;;;31.50;14.10;;;;;;;1.98;100.00;100236.19;214130;1284;140300;-87
2023/12/31 06:49:11;;;;;;;36.70;15.70;;;;;;;1.97;100.00;100235.36;214867;1289;139384;-87
2023/12/31 06:54:11;;;;;;;38.60;17.00;;;;;;;1.97;100.00;100234.46;214150;1289;140144;-87
2023/12/31 06:59:14;;;;;;;48.30;18.60;;;;;;;1.95;100.00;100237.98;214628;1289;139862;-88
2023/12/31 07:04:15;;;;;;;39.90;18.60;;;;;;;1.94;100.00;100241.34;214080;1289;139853;-88
2023/12/31 07:09:16;;;;;;;48.80;19.50;;;;;;;1.91;100.00;100241.52;214486;1285;104652;-88
2023/12/31 07:14:17;;;;;;;43.50;18.60;;;;;;;1.85;100.00;100237.23;214372;1285;139597;-87
2023/12/31 07:19:19;;;;;;;61.60;24.70;;;;;;;1.79;100.00;100231.27;214556;1285;139023;-88
2023/12/31 07:24:21;;;;;;;79.30;30.20;;;;;;;1.76;100.00;100234.20;213915;1290;140794;-87
2023/12/31 07:29:22;;;;;;;67.00;23.20;;;;;;;1.74;100.00;100236.32;214599;1284;138977;-88
2023/12/31 07:34:22;;;;;;;65.10;27.70;;;;;;;1.72;100.00;100242.10;213984;1287;139626;-88
2023/12/31 07:39:23;;;;;;;47.20;20.70;;;;;;;1.70;100.00;100240.40;214867;1284;97889;-87
2023/12/31 07:44:23;;;;;;;42.20;17.50;;;;;;;1.68;100.00;100241.35;213936;1289;141148;-87
2023/12/31 07:49:24;;;;;;;39.80;19.90;;;;;;;1.69;100.00;100239.18;214752;1289;138679;-87
2023/12/31 07:54:25;;;;;;;35.50;18.80;;;;;;;1.69;100.00;100236.62;214139;1284;141484;-88
2023/12/31 07:59:26;;;;;;;38.50;19.10;;;;;;;1.70;100.00;100234.10;214578;1285;138842;-88
2023/12/31 08:04:27;;;;;;;35.80;18.80;;;;;;;1.72;100.00;100232.16;214014;1285;139529;-89
2023/12/31 08:09:27;;;;;;;32.40;14.90;;;;;;;1.73;100.00;100232.02;214409;1285;99299;-87
2023/12/31 08:14:28;;;;;;;30.10;14.90;;;;;;;1.77;100.00;100227.59;214085;1285;139838;-87
2023/12/31 08:19:31;;;;;;;39.10;20.80;;;;;;;1.81;100.00;100227.14;214473;1289;139353;-87
2023/12/31 08:24:32;;;;;;;39.70;17.90;;;;;;;1.88;100.00;100229.67;213903;1286;140267;-88
2023/12/31 08:29:32;;;;;;;36.70;16.60;;;;;;;1.95;100.00;100232.85;214272;1285;139170;-88
2023/12/31 08:34:32;;;;;;;34.40;16.20;;;;;;;2.01;100.00;100226.98;213929;1284;142367;-88
2023/12/31 08:39:37;;;;;;;38.30;17.80;;;;;;;2.08;100.00;100226.25;214326;1285;97958;-89
2023/12/31 08:44:37;;;;;;;34.20;16.50;;;;;;;2.13;100.00;100230.35;213739;1285;139800;-88
2023/12/31 08:49:38;;;;;;;63.50;23.10;;;;;;;2.18;100.00;100229.73;214400;1284;138721;-89
2023/12/31 08:54:39;;;;;;;45.20;20.60;;;;;;;2.23;100.00;100227.81;213785;1289;140170;-88
2023/12/31 08:59:39;;;;;;;45.40;19.10;;;;;;;2.27;100.00;100223.31;214256;1285;139178;-89
2023/12/31 09:04:40;;;;;;;44.40;19.70;;;;;;;2.34;100.00;100218.34;214111;1285;139408;-88
2023/12/31 09:09:42;;;;;;;45.60;21.60;;;;;;;2.41;100.00;100215.36;214581;1284;98172;-89
2023/12/31 09:14:42;;;;;;;41.90;19.90;;;;;;;2.47;100.00;100214.21;213973;1289;139327;-88
2023/12/31 09:19:42;;;;;;;45.30;20.90;;;;;;;2.53;100.00;100212.45;214752;1285;138886;-90
2023/12/31 09:24:44;;;;;;;39.20;22.30;;;;;;;2.62;100.00;100206.41;213975;1285;139886;-89
2023/12/31 09:29:48;;;;;;;41.50;20.10;;;;;;;2.73;100.00;100194.48;214426;1284;138862;-88
2023/12/31 09:34:48;;;;;;;43.00;21.40;;;;;;;2.84;100.00;100189.79;214359;1285;139415;-88
2023/12/31 09:39:49;;;;;;;48.50;22.80;;;;;;;2.97;100.00;100192.76;214318;1285;140339;-86
2023/12/31 09:44:50;;;;;;;39.50;20.90;;;;;;;3.10;100.00;100188.45;214350;1285;315283;-87
2023/12/31 09:49:53;;;;;;;43.60;20.70;;;;;;;3.25;100.00;100178.95;213937;1287;140047;-89
2023/12/31 09:54:54;;;;;;;38.00;21.10;;;;;;;3.39;100.00;100171.87;214880;1285;138887;-89
2023/12/31 09:59:55;;;;;;;40.60;19.70;;;;;;;3.52;100.00;100171.13;213883;1289;139993;-89
2023/12/31 10:04:56;;;;;;;37.70;20.10;;;;;;;3.64;100.00;100157.97;214349;1290;138858;-89
2023/12/31 10:09:58;;;;;;;38.30;20.50;;;;;;;3.78;100.00;100149.87;213690;1289;140096;-89
2023/12/31 10:14:58;;;;;;;47.90;22.80;;;;;;;3.87;100.00;100138.21;214599;1285;98638;-90
2023/12/31 10:19:58;;;;;;;40.20;20.60;;;;;;;3.96;100.00;100132.77;214178;1285;139948;-89
2023/12/31 10:25:13;;;;;;;43.40;20.50;;;;;;;4.06;100.00;100126.08;214376;1289;139137;-90
2023/12/31 10:30:14;;;;;;;42.50;20.50;;;;;;;4.16;100.00;100117.14;213905;1290;140573;-89
2023/12/31 10:35:21;;;;;;;100.70;51.50;;;;;;;4.26;100.00;100114.17;214389;1285;139894;-90
2023/12/31 10:40:22;;;;;;;54.20;24.70;;;;;;;4.36;100.00;100109.84;213675;1285;140372;-89
2023/12/31 10:45:23;;;;;;;52.20;25.00;;;;;;;4.45;100.00;100099.33;214284;1290;97949;-89
2023/12/31 10:50:25;;;;;;;44.70;22.50;;;;;;;4.52;100.00;100086.70;213970;1285;140167;-90
2023/12/31 10:55:26;;;;;;;41.70;21.30;;;;;;;4.58;100.00;100091.34;214310;1285;139148;-89
2023/12/31 11:00:27;;;;;;;39.50;21.70;;;;;;;4.66;100.00;100087.05;213858;1289;140417;-90
2023/12/31 11:05:31;;;;;;;38.20;20.10;;;;;;;4.74;100.00;100077.85;214256;1285;139098;-89
2023/12/31 11:10:32;;;;;;;35.50;19.40;;;;;;;4.83;100.00;100074.30;213857;1287;139822;-90
2023/12/31 11:15:35;;;;;;;37.10;19.60;;;;;;;4.92;100.00;100062.95;214421;1285;97971;-89
2023/12/31 11:21:26;;;;;;;33.20;17.70;;;;;;;5.01;100.00;100050.58;213925;1291;139734;-89
2023/12/31 11:26:28;;;;;;;43.10;21.60;;;;;;;5.08;100.00;100038.46;213227;1295;138996;-90
2023/12/31 11:31:29;;;;;;;38.70;20.60;;;;;;;5.14;100.00;100025.59;213649;1285;139867;-90
2023/12/31 11:36:31;;;;;;;47.00;22.50;;;;;;;5.19;100.00;100014.35;214397;1288;139113;-91
2023/12/31 11:41:32;;;;;;;44.00;21.30;;;;;;;5.24;100.00;100004.88;213830;1290;142713;-91
2023/12/31 11:46:42;;;;;;;41.20;19.30;;;;;;;5.29;100.00;99995.41;214631;1286;138955;-90
2023/12/31 11:51:57;;;;;;;34.30;19.30;;;;;;;5.36;100.00;99985.77;214308;1288;140060;-90
2023/12/31 11:56:59;;;;;;;40.50;21.30;;;;;;;5.44;100.00;99972.88;214645;1286;99158;-91
2023/12/31 12:02:01;;;;;;;39.20;18.40;;;;;;;5.49;100.00;99955.75;214146;1289;140929;-91
2023/12/31 12:07:03;;;;;;;48.30;24.80;;;;;;;5.50;100.00;99947.05;214403;1289;138865;-90
2023/12/31 12:12:11;;;;;;;40.40;21.70;;;;;;;5.51;100.00;99939.52;214075;1285;140128;-90
2023/12/31 12:17:11;;;;;;;37.60;20.10;;;;;;;5.52;100.00;99924.32;214629;1289;138792;-92
2023/12/31 12:22:13;;;;;;;126.30;45.00;;;;;;;5.56;100.00;99909.23;214315;1289;139780;-92
2023/12/31 12:27:15;;;;;;;101.30;41.90;;;;;;;5.60;100.00;99906.50;214523;1287;98856;-92
2023/12/31 12:32:18;;;;;;;82.60;33.30;;;;;;;5.64;100.00;99904.01;214162;1291;140440;-91
2023/12/31 12:37:19;;;;;;;52.80;25.90;;;;;;;5.66;100.00;99903.58;214530;1288;138664;-91
2023/12/31 12:42:23;;;;;;;79.00;40.80;;;;;;;5.67;100.00;99891.85;214241;1289;139890;-92
2023/12/31 12:47:24;;;;;;;43.10;23.10;;;;;;;5.69;100.00;99883.61;214581;1289;138653;-91
2023/12/31 12:52:24;;;;;;;47.20;25.30;;;;;;;5.68;100.00;99877.73;214025;1285;140021;-91
2023/12/31 12:57:25;;;;;;;96.10;39.00;;;;;;;5.65;100.00;99875.27;214622;1289;98934;-91
2023/12/31 13:02:25;;;;;;;71.20;32.20;;;;;;;5.64;100.00;99867.67;213923;1289;139628;-91
2023/12/31 13:07:26;;;;;;;54.80;27.50;;;;;;;5.63;100.00;99867.64;214642;1286;139964;-91
2023/12/31 13:12:28;;;;;;;69.20;31.60;;;;;;;5.60;100.00;99860.00;214162;1288;139691;-91
2023/12/31 13:17:30;;;;;;;97.60;41.30;;;;;;;5.58;100.00;99856.08;214572;1288;138854;-90
2023/12/31 13:22:31;;;;;;;90.00;37.60;;;;;;;5.54;100.00;99842.20;214365;1284;141205;-91
2023/12/31 13:27:32;;;;;;;147.90;60.80;;;;;;;5.50;100.00;99828.07;214603;1290;98125;-91
2023/12/31 13:32:32;;;;;;;169.30;57.40;;;;;;;5.47;100.00;99823.79;214268;1288;139431;-91
2023/12/31 13:37:32;;;;;;;105.10;41.00;;;;;;;5.41;100.00;99819.69;214827;1290;139196;-94
2023/12/31 13:42:33;;;;;;;131.20;47.00;;;;;;;5.37;100.00;99818.51;213970;1288;140229;-92
2023/12/31 13:47:35;;;;;;;118.60;44.80;;;;;;;5.33;100.00;99820.60;214738;1285;138861;-91
2023/12/31 13:52:36;;;;;;;119.80;44.30;;;;;;;5.28;100.00;99818.48;214325;1285;140521;-92
2023/12/31 13:57:36;;;;;;;127.30;44.30;;;;;;;5.24;100.00;99815.80;214878;1288;99262;-92
2023/12/31 14:02:38;;;;;;;113.20;43.80;;;;;;;5.20;100.00;99810.48;214105;1286;139819;-91
2023/12/31 14:07:38;;;;;;;67.90;29.10;;;;;;;5.15;100.00;99809.20;214936;1288;139969;-91
2023/12/31 14:12:39;;;;;;;76.20;33.50;;;;;;;5.08;100.00;99806.17;214280;1289;140419;-91
2023/12/31 14:17:39;;;;;;;124.90;53.30;;;;;;;5.01;100.00;99798.14;214830;1288;138653;-92
2023/12/31 14:22:41;;;;;;;135.90;47.60;;;;;;;4.95;100.00;99787.71;214499;1286;139856;-92
2023/12/31 14:27:42;;;;;;;93.40;37.90;;;;;;;4.90;100.00;99785.63;214719;1286;98005;-91
2023/12/31 14:32:43;;;;;;;86.60;37.00;;;;;;;4.83;100.00;99785.95;214514;1291;139776;-93
2023/12/31 14:37:43;;;;;;;94.40;40.70;;;;;;;4.77;100.00;99779.42;215316;1289;139227;-93
2023/12/31 14:42:44;;;;;;;101.30;42.40;;;;;;;4.70;100.00;99772.16;214571;1285;139692;-92
2023/12/31 14:47:44;;;;;;;74.60;34.80;;;;;;;4.63;100.00;99776.98;214998;1285;139544;-91
2023/12/31 14:52:45;;;;;;;156.40;55.60;;;;;;;4.54;100.00;99764.92;214732;1289;140651;-90
2023/12/31 14:57:45;;;;;;;162.90;57.80;;;;;;;4.46;100.00;99757.11;215260;1286;97889;-93
2023/12/31 15:02:47;;;;;;;133.60;51.40;;;;;;;4.40;100.00;99758.58;214271;1289;140182;-93
2023/12/31 15:07:48;;;;;;;116.40;43.00;;;;;;;4.31;100.00;99746.70;214618;1289;138854;-90
2023/12/31 15:12:48;;;;;;;128.40;48.80;;;;;;;4.24;100.00;99746.52;214321;1289;139782;-91
2023/12/31 15:17:49;;;;;;;140.00;56.70;;;;;;;4.17;100.00;99739.65;214932;1288;139465;-91
2023/12/31 15:22:49;;;;;;;146.30;51.70;;;;;;;4.12;100.00;99735.31;214941;1289;141254;-92
2023/12/31 15:27:52;;;;;;;143.30;52.60;;;;;;;4.07;100.00;99736.97;215244;1291;98385;-92
2023/12/31 15:32:53;;;;;;;135.20;51.10;;;;;;;4.01;100.00;99735.80;214493;1284;139945;-92
2023/12/31 15:37:53;;;;;;;108.70;44.60;;;;;;;3.95;100.00;99738.14;215221;1286;139372;-92
2023/12/31 15:42:54;;;;;;;80.00;36.60;;;;;;;3.90;100.00;99732.66;214735;1285;139921;-93
2023/12/31 15:47:56;;;;;;;97.90;38.20;;;;;;;3.87;100.00;99727.13;214846;1289;139072;-91
2023/12/31 15:52:56;;;;;;;124.20;70.50;;;;;;;3.84;100.00;99716.39;214048;1288;140497;-91
2023/12/31 15:57:56;;;;;;;131.70;54.40;;;;;;;3.81;100.00;99699.21;214815;1286;98055;-92
2023/12/31 16:02:57;;;;;;;97.60;42.00;;;;;;;3.80;100.00;99695.13;214337;1286;140431;-93
2023/12/31 16:07:57;;;;;;;86.20;39.10;;;;;;;3.79;100.00;99692.24;214819;1288;138839;-91
2023/12/31 16:12:58;;;;;;;88.40;37.70;;;;;;;3.78;100.00;99685.98;214528;1286;139913;-92
2023/12/31 16:17:58;;;;;;;86.80;37.70;;;;;;;3.77;100.00;99681.98;215017;1284;139400;-93
2023/12/31 16:22:59;;;;;;;69.10;33.20;;;;;;;3.76;100.00;99672.17;214180;1286;139621;-92
2023/12/31 16:27:59;;;;;;;74.50;32.60;;;;;;;3.75;100.00;99658.39;214955;1287;139173;-92
2023/12/31 16:33:00;;;;;;;76.10;34.50;;;;;;;3.74;100.00;99657.19;214516;1287;140311;-92
2023/12/31 16:38:00;;;;;;;114.70;48.30;;;;;;;3.72;100.00;99658.30;214878;1285;139545;-92
2023/12/31 16:43:08;;;;;;;70.60;35.30;;;;;;;3.72;100.00;99658.08;214332;1290;140045;-92
2023/12/31 16:48:09;;;;;;;66.20;31.10;;;;;;;3.70;100.00;99661.98;214606;1286;138935;-92
2023/12/31 16:53:14;;;;;;;69.30;33.70;;;;;;;3.70;100.00;99664.00;214521;1285;140017;-92
2023/12/31 16:58:15;;;;;;;68.00;32.20;;;;;;;3.69;100.00;99666.48;214729;1289;138853;-93
2023/12/31 17:03:16;;;;;;;130.40;54.00;;;;;;;3.70;100.00;99660.73;215107;1288;139421;-92
2023/12/31 17:08:16;;;;;;;188.90;72.40;;;;;;;3.70;100.00;99649.94;214823;1289;138723;-90
2023/12/31 17:13:17;;;;;;;120.50;49.70;;;;;;;3.71;100.00;99642.48;214276;1284;140233;-92
2023/12/31 17:18:17;;;;;;;118.50;46.20;;;;;;;3.72;100.00;99635.29;214864;1285;139117;-93
2023/12/31 17:23:18;;;;;;;70.10;33.40;;;;;;;3.72;100.00;99639.72;214709;1289;139823;-93
2023/12/31 17:28:18;;;;;;;70.40;32.20;;;;;;;3.73;100.00;99638.80;215061;1284;139340;-92
2023/12/31 17:33:19;;;;;;;92.50;38.30;;;;;;;3.73;100.00;99629.17;214612;1285;140037;-92
2023/12/31 17:38:20;;;;;;;73.60;33.10;;;;;;;3.73;100.00;99618.61;215102;1284;139453;-91
2023/12/31 17:43:20;;;;;;;98.40;44.10;;;;;;;3.74;100.00;99611.09;214945;1284;139494;-92
2023/12/31 17:48:21;;;;;;;82.10;36.70;;;;;;;3.77;100.00;99607.42;215147;1284;138771;-91
2023/12/31 17:53:21;;;;;;;62.10;30.90;;;;;;;3.80;100.00;99612.00;214700;1285;139563;-93
2023/12/31 17:58:25;;;;;;;57.90;28.90;;;;;;;3.82;100.00;99626.46;215097;1285;139267;-91
2023/12/31 18:03:25;;;;;;;63.80;31.10;;;;;;;3.86;100.00;99616.83;214471;1289;139586;-92
2023/12/31 18:08:26;;;;;;;60.10;30.40;;;;;;;3.90;100.00;99610.41;214861;1284;138759;-91
2023/12/31 18:13:29;;;;;;;61.40;30.60;;;;;;;3.94;100.00;99604.04;214216;1289;139817;-92
2023/12/31 18:18:29;;;;;;;79.30;38.30;;;;;;;3.99;100.00;99598.08;214844;1285;139813;-91
2023/12/31 18:23:30;;;;;;;68.70;36.30;;;;;;;4.03;100.00;99604.55;214391;1285;139856;-89
2023/12/31 18:28:33;;;;;;;71.80;34.10;;;;;;;4.06;100.00;99603.48;214825;1288;140505;-90
2023/12/31 18:33:33;;;;;;;60.20;31.00;;;;;;;4.09;100.00;99593.73;214409;1284;139454;-89
2023/12/31 18:38:34;;;;;;;63.50;32.60;;;;;;;4.11;100.00;99591.06;214928;1289;139072;-90
2023/12/31 18:43:35;;;;;;;61.30;30.20;;;;;;;4.13;100.00;99579.91;214119;1285;139460;-90
2023/12/31 18:48:35;;;;;;;64.40;30.90;;;;;;;4.16;100.00;99579.81;214658;1285;138936;-90
2023/12/31 18:53:39;;;;;;;62.10;31.40;;;;;;;4.17;100.00;99581.16;214589;1285;139718;-92
2023/12/31 18:58:39;;;;;;;73.10;33.00;;;;;;;4.17;100.00;99577.42;214805;1285;138932;-89
2023/12/31 19:03:40;;;;;;;68.10;32.70;;;;;;;4.17;100.00;99573.94;214542;1285;139677;-90
2023/12/31 19:08:40;;;;;;;68.90;31.70;;;;;;;4.18;100.00;99572.55;214658;1285;139021;-91
2023/12/31 19:13:41;;;;;;;71.20;33.50;;;;;;;4.18;100.00;99573.33;214034;1284;139876;-90
2023/12/31 19:18:41;;;;;;;63.40;33.50;;;;;;;4.19;100.00;99579.95;214698;1289;139507;-89
2023/12/31 19:23:41;;;;;;;74.60;32.60;;;;;;;4.19;100.00;99579.17;214153;1289;139726;-89
2023/12/31 19:28:42;;;;;;;69.30;33.00;;;;;;;4.21;100.00;99579.30;214609;1284;139181;-89
2023/12/31 19:33:42;;;;;;;62.60;32.50;;;;;;;4.21;100.00;99578.39;214082;1285;139847;-91
2023/12/31 19:38:43;;;;;;;66.30;31.30;;;;;;;4.23;100.00;99577.23;214680;1285;139278;-93
2023/12/31 19:43:43;;;;;;;70.10;34.50;;;;;;;4.23;100.00;99569.01;214620;1284;140145;-94
2023/12/31 19:48:49;;;;;;;71.70;36.00;;;;;;;4.23;100.00;99564.49;214948;1289;138925;-92
2023/12/31 19:53:50;;;;;;;55.20;28.70;;;;;;;4.23;100.00;99570.41;215458;1285;139597;-92
2023/12/31 19:58:52;;;;;;;61.80;31.00;;;;;;;4.22;100.00;99573.43;216739;1285;138826;-93
2023/12/31 20:03:52;;;;;;;76.80;33.60;;;;;;;4.23;100.00;99571.89;215477;1285;139599;-93
2023/12/31 20:08:53;;;;;;;70.30;33.80;;;;;;;4.21;100.00;99563.13;216135;1284;138795;-90
2023/12/31 20:13:54;;;;;;;67.00;32.20;;;;;;;4.19;100.00;99563.16;215329;1286;140844;-91
2023/12/31 20:18:54;;;;;;;53.50;30.00;;;;;;;4.18;100.00;99572.00;215769;1284;139780;-88
2023/12/31 20:23:59;;;;;;;64.60;30.80;;;;;;;4.17;100.00;99577.73;215287;1284;139643;-91
2023/12/31 20:29:00;;;;;;;58.30;29.30;;;;;;;4.17;100.00;99589.11;215874;1285;138806;-90
2023/12/31 20:34:00;;;;;;;61.30;32.10;;;;;;;4.18;100.00;99586.72;215372;1284;139652;-91
2023/12/31 20:39:01;;;;;;;71.90;34.80;;;;;;;4.20;100.00;99590.65;215791;1286;138599;-89
2023/12/31 20:44:04;;;;;;;70.00;33.70;;;;;;;4.21;100.00;99594.55;216339;1284;139676;-93
2023/12/31 20:49:05;;;;;;;66.30;33.50;;;;;;;4.22;100.00;99586.96;215717;1285;138838;-90
2023/12/31 20:54:07;;;;;;;61.90;32.30;;;;;;;4.23;100.00;99580.12;215350;1285;139406;-90
2023/12/31 20:59:09;;;;;;;67.20;33.60;;;;;;;4.22;100.00;99580.35;216008;1289;138611;-89
2023/12/31 21:04:10;;;;;;;73.30;35.40;;;;;;;4.21;100.00;99578.77;215303;1285;139612;-90
2023/12/31 21:09:10;;;;;;;59.90;31.90;;;;;;;4.20;100.00;99578.74;216107;1285;97777;-92
2023/12/31 21:14:11;;;;;;;66.40;32.30;;;;;;;4.21;100.00;99585.00;215523;1284;139514;-92
2023/12/31 21:19:11;;;;;;;68.60;35.00;;;;;;;4.23;100.00;99586.05;215920;1288;139990;-92
2023/12/31 21:24:12;;;;;;;69.10;33.00;;;;;;;4.22;100.00;99581.83;215388;1285;139803;-93
2023/12/31 21:29:13;;;;;;;73.20;36.50;;;;;;;4.24;100.00;99583.80;216142;1285;139229;-91
2023/12/31 21:34:14;;;;;;;70.20;35.90;;;;;;;4.26;100.00;99591.32;215614;1285;139874;-92
2023/12/31 21:39:14;;;;;;;68.80;37.80;;;;;;;4.27;100.00;99595.94;216204;1284;97415;-90
2023/12/31 21:44:14;;;;;;;81.40;39.10;;;;;;;4.26;100.00;99587.98;215797;1285;140744;-93
2023/12/31 21:49:15;;;;;;;82.00;40.70;;;;;;;4.24;100.00;99584.27;216118;1285;222230;-90
2023/12/31 21:54:15;;;;;;;72.00;36.70;;;;;;;4.19;100.00;99578.48;215795;1285;139503;-92
2023/12/31 21:59:16;;;;;;;68.10;35.30;;;;;;;4.14;100.00;99580.94;215808;1285;139092;-91
2023/12/31 22:04:16;;;;;;;84.50;42.90;;;;;;;4.15;100.00;99586.48;215670;1286;139503;-92
2023/12/31 22:09:18;;;;;;;79.70;41.50;;;;;;;4.17;100.00;99588.23;216266;1284;97617;-92
2023/12/31 22:14:18;;;;;;;77.10;39.50;;;;;;;4.16;100.00;99589.77;215501;1284;139042;-92
2023/12/31 22:19:18;;;;;;;85.50;41.20;;;;;;;4.17;100.00;99596.26;216199;1285;139077;-91
2023/12/31 22:24:19;;;;;;;74.90;38.50;;;;;;;4.14;100.00;99604.06;215377;1284;138888;-92